Time;durP1;ratioP1;P1;durP2;ratioP2;P2;SDS_P1;SDS_P2;PMS_P1;PMS_P2;Temp;Humidity;BMP_temperature;BMP_pressure;BME280_temperature;BME280_humidity;BME280_pressure;Samples;Min_cycle;Max_cycle;Signal;HPM_P1;HPM_P2
2023/03/18 00:02:25;;;;;;;;;;;;;;;;;;4993584;28;19921;-85
2023/03/18 00:04:51;;;;;;;;;;;;;;;;;;4995389;28;19921;-80
2023/03/18 00:07:17;;;;;;;;;;;;;;;;;;4995035;28;19984;-83
2023/03/18 00:09:43;;;;;;;;;;;;;;;;;;4994960;28;19922;-82
2023/03/18 00:12:09;;;;;;;;;;;;;;;;;;4993385;28;20371;-80
2023/03/18 00:14:36;;;;;;;;;;;;;;;;;;4993636;28;20043;-81
2023/03/18 00:17:02;;;;;;;;;;;;;;;;;;4994333;28;19976;-83
2023/03/18 00:19:28;;;;;;;;;;;;;;;;;;4995065;28;20315;-82
2023/03/18 00:21:54;;;;;;;;;;;;;;;;;;4994677;28;19926;-82
2023/03/18 00:24:20;;;;;;;;;;;;;;;;;;4994097;28;19921;-83
2023/03/18 00:26:46;;;;;;;;;;;;;;;;;;4994743;28;19922;-82
2023/03/18 00:29:12;;;;;;;;;;;;;;;;;;4994926;28;19928;-82
2023/03/18 00:31:39;;;;;;;;;;;;;;;;;;4994910;28;20331;-82
2023/03/18 00:34:05;;;;;;;;;;;;;;;;;;4994373;28;19968;-85
2023/03/18 00:36:31;;;;;;;;;;;;;;;;;;4994007;28;19926;-83
2023/03/18 00:38:57;;;;;;;;;;;;;;;;;;4994546;28;19925;-82
2023/03/18 00:41:23;;;;;;;;;;;;;;;;;;4993314;28;19983;-82
2023/03/18 00:43:51;;;;;;;;;;;;;;;;;;4994197;28;19972;-82
2023/03/18 00:46:17;;;;;;;;;;;;;;;;;;4994530;28;19928;-82
2023/03/18 00:48:43;;;;;;;;;;;;;;;;;;4977673;28;19922;-82
2023/03/18 00:51:12;;;;;;;;;;;;;;;;;;4994414;28;20052;-82
2023/03/18 00:53:39;;;;;;;;;;;;;;;;;;4996468;28;19975;-83
2023/03/18 00:56:04;;;;;;;;;;;;;;;;;;4993170;28;19922;-84
2023/03/18 00:58:30;;;;;;;;;;;;;;;;;;4994603;28;19933;-83
2023/03/18 01:00:56;;;;;;;;;;;;;;;;;;4993403;28;19928;-82
2023/03/18 01:03:25;;;;;;;;;;;;;;;;;;4993454;28;20023;-83
2023/03/18 01:05:52;;;;;;;;;;;;;;;;;;4993071;28;19926;-83
2023/03/18 01:08:18;;;;;;;;;;;;;;;;;;4993554;28;20407;-82
2023/03/18 01:10:44;;;;;;;;;;;;;;;;;;4994584;28;19922;-84
2023/03/18 01:13:10;;;;;;;;;;;;;;;;;;4992801;28;19921;-82
2023/03/18 01:15:36;;;;;;;;;;;;;;;;;;4993312;28;20033;-83
2023/03/18 01:18:02;;;;;;;;;;;;;;;;;;4993317;28;19929;-82
2023/03/18 01:20:29;;;;;;;;;;;;;;;;;;4993200;28;19957;-82
2023/03/18 01:22:55;;;;;;;;;;;;;;;;;;4992695;28;20371;-82
2023/03/18 01:25:22;;;;;;;;;;;;;;;;;;4993830;28;19925;-82
2023/03/18 01:27:48;;;;;;;;;;;;;;;;;;4992365;28;19922;-82
2023/03/18 01:30:14;;;;;;;;;;;;;;;;;;4992732;28;19945;-82
2023/03/18 01:32:42;;;;;;;;;;;;;;;;;;4993693;28;20407;-83
2023/03/18 01:35:08;;;;;;;;;;;;;;;;;;4992819;28;19925;-87
2023/03/18 01:37:34;;;;;;;;;;;;;;;;;;4992351;28;20001;-82
2023/03/18 01:40:00;;;;;;;;;;;;;;;;;;4992198;28;19922;-82
2023/03/18 01:42:26;;;;;;;;;;;;;;;;;;4975574;28;19925;-82
2023/03/18 01:44:52;;;;;;;;;;;;;;;;;;4994253;28;19922;-83
2023/03/18 01:47:20;;;;;;;;;;;;;;;;;;4992466;28;20391;-83
2023/03/18 01:49:46;;;;;;;;;;;;;;;;;;4992538;28;20049;-82
2023/03/18 01:52:14;;;;;;;;;;;;;;;;;;4992340;28;19929;-83
2023/03/18 01:54:40;;;;;;;;;;;;;;;;;;4993427;28;19922;-82
2023/03/18 01:57:06;;;;;;;;;;;;;;;;;;4991845;28;20017;-83
2023/03/18 01:59:32;;;;;;;;;;;;;;;;;;4992274;28;20592;-82
2023/03/18 02:01:58;;;;;;;;;;;;;;;;;;4993045;28;19972;-84
2023/03/18 02:04:24;;;;;;;;;;;;;;;;;;4991642;28;20318;-84
2023/03/18 02:06:50;;;;;;;;;;;;;;;;;;4992547;28;20091;-83
2023/03/18 02:09:16;;;;;;;;;;;;;;;;;;4991531;28;19925;-82
2023/03/18 02:11:42;;;;;;;;;;;;;;;;;;4991750;28;20080;-82
2023/03/18 02:14:08;;;;;;;;;;;;;;;;;;4991673;28;20020;-83
2023/03/18 02:16:34;;;;;;;;;;;;;;;;;;4975364;28;19918;-83
2023/03/18 02:19:00;;;;;;;;;;;;;;;;;;4992101;28;19967;-82
2023/03/18 02:21:26;;;;;;;;;;;;;;;;;;4992514;28;19929;-82
2023/03/18 02:23:52;;;;;;;;;;;;;;;;;;4991647;28;20363;-82
2023/03/18 02:26:18;;;;;;;;;;;;;;;;;;4991004;28;20008;-82
2023/03/18 02:28:44;;;;;;;;;;;;;;;;;;4992052;28;20271;-82
2023/03/18 02:31:10;;;;;;;;;;;;;;;;;;4991704;28;20028;-82
2023/03/18 02:33:37;;;;;;;;;;;;;;;;;;4991497;28;19922;-83
2023/03/18 02:36:04;;;;;;;;;;;;;;;;;;4992076;28;20381;-82
2023/03/18 02:38:30;;;;;;;;;;;;;;;;;;4991311;28;19988;-82
2023/03/18 02:40:56;;;;;;;;;;;;;;;;;;4992418;28;20354;-80
2023/03/18 02:43:22;;;;;;;;;;;;;;;;;;4974104;28;19928;-81
2023/03/18 02:45:48;;;;;;;;;;;;;;;;;;4992785;28;19976;-81
2023/03/18 02:48:14;;;;;;;;;;;;;;;;;;4991974;28;19922;-81
2023/03/18 02:50:40;;;;;;;;;;;;;;;;;;4992522;28;19926;-80
2023/03/18 02:53:07;;;;;;;;;;;;;;;;;;4991797;28;19922;-80
2023/03/18 02:55:33;;;;;;;;;;;;;;;;;;4975666;28;19929;-80
2023/03/18 02:57:59;;;;;;;;;;;;;;;;;;4992403;28;20279;-79
2023/03/18 03:00:25;;;;;;;;;;;;;;;;;;4992573;28;19921;-81
2023/03/18 03:02:51;;;;;;;;;;;;;;;;;;4992120;28;19929;-81
2023/03/18 03:05:17;;;;;;;;;;;;;;;;;;4991228;28;19928;-88
2023/03/18 03:07:43;;;;;;;;;;;;;;;;;;4990926;28;19929;-80
2023/03/18 03:10:09;;;;;;;;;;;;;;;;;;4992639;28;19928;-81
2023/03/18 03:12:36;;;;;;;;;;;;;;;;;;4990611;28;19921;-81
2023/03/18 03:15:02;;;;;;;;;;;;;;;;;;4975380;28;19929;-82
2023/03/18 03:17:28;;;;;;;;;;;;;;;;;;4992345;28;19922;-81
2023/03/18 03:19:55;;;;;;;;;;;;;;;;;;4991782;28;19921;-82
2023/03/18 03:22:21;;;;;;;;;;;;;;;;;;4990365;28;19941;-85
2023/03/18 03:24:47;;;;;;;;;;;;;;;;;;4991289;28;20379;-81
2023/03/18 03:27:13;;;;;;;;;;;;;;;;;;4993157;28;20017;-80
2023/03/18 03:29:39;;;;;;;;;;;;;;;;;;4996012;28;19965;-81
2023/03/18 03:32:05;;;;;;;;;;;;;;;;;;4995232;28;19925;-80
2023/03/18 03:34:32;;;;;;;;;;;;;;;;;;4995538;28;19922;-80
2023/03/18 03:36:58;;;;;;;;;;;;;;;;;;4978888;28;19922;-81
2023/03/18 03:39:24;;;;;;;;;;;;;;;;;;4995022;28;19976;-80
2023/03/18 03:41:51;;;;;;;;;;;;;;;;;;4994374;28;19921;-80
2023/03/18 03:44:18;;;;;;;;;;;;;;;;;;4994526;28;19980;-81
2023/03/18 03:46:44;;;;;;;;;;;;;;;;;;4995540;28;19921;-80
2023/03/18 03:49:11;;;;;;;;;;;;;;;;;;4994580;28;19926;-80
2023/03/18 03:51:37;;;;;;;;;;;;;;;;;;4995668;28;19922;-80
2023/03/18 03:54:03;;;;;;;;;;;;;;;;;;4995572;28;20295;-80
2023/03/18 03:56:30;;;;;;;;;;;;;;;;;;4994068;28;19937;-80
2023/03/18 03:58:56;;;;;;;;;;;;;;;;;;4995786;28;19964;-81
2023/03/18 04:01:22;;;;;;;;;;;;;;;;;;4995525;28;19976;-84
2023/03/18 04:03:48;;;;;;;;;;;;;;;;;;4995538;28;19922;-80
2023/03/18 04:06:14;;;;;;;;;;;;;;;;;;4994405;28;20032;-80
2023/03/18 04:08:40;;;;;;;;;;;;;;;;;;4994005;28;19973;-80
2023/03/18 04:11:06;;;;;;;;;;;;;;;;;;4994810;28;19921;-80
2023/03/18 04:13:32;;;;;;;;;;;;;;;;;;4994016;28;19922;-81
2023/03/18 04:15:58;;;;;;;;;;;;;;;;;;4994544;28;20012;-80
2023/03/18 04:18:24;;;;;;;;;;;;;;;;;;4994345;28;19922;-85
2023/03/18 04:20:50;;;;;;;;;;;;;;;;;;4995451;28;19972;-80
2023/03/18 04:23:16;;;;;;;;;;;;;;;;;;4994115;28;20386;-80
2023/03/18 04:25:43;;;;;;;;;;;;;;;;;;4994149;28;19925;-81
2023/03/18 04:28:09;;;;;;;;;;;;;;;;;;4993985;28;19971;-80
2023/03/18 04:30:35;;;;;;;;;;;;;;;;;;4994015;28;19922;-80
2023/03/18 04:33:02;;;;;;;;;;;;;;;;;;4993280;28;19932;-80
2023/03/18 04:35:28;;;;;;;;;;;;;;;;;;4993475;28;19926;-81
2023/03/18 04:37:54;;;;;;;;;;;;;;;;;;4992072;28;20362;-81
2023/03/18 04:40:19;;;;;;;;;;;;;;;;;;4993563;28;19937;-82
2023/03/18 04:42:46;;;;;;;;;;;;;;;;;;4994040;28;19928;-82
2023/03/18 04:45:12;;;;;;;;;;;;;;;;;;4993848;28;19921;-80
2023/03/18 04:47:39;;;;;;;;;;;;;;;;;;4994739;28;19921;-80
2023/03/18 04:50:04;;;;;;;;;;;;;;;;;;4993789;28;19928;-80
2023/03/18 04:52:30;;;;;;;;;;;;;;;;;;4993154;28;19925;-82
2023/03/18 04:54:56;;;;;;;;;;;;;;;;;;4993152;28;19922;-80
2023/03/18 04:57:22;;;;;;;;;;;;;;;;;;4994502;28;19921;-80
2023/03/18 04:59:48;;;;;;;;;;;;;;;;;;4994372;28;20112;-80
2023/03/18 05:02:14;;;;;;;;;;;;;;;;;;4993207;28;19961;-82
2023/03/18 05:04:40;;;;;;;;;;;;;;;;;;4992651;28;20066;-80
2023/03/18 05:07:07;;;;;;;;;;;;;;;;;;4993186;28;19948;-81
2023/03/18 05:09:33;;;;;;;;;;;;;;;;;;4992999;28;19921;-80
2023/03/18 05:11:59;;;;;;;;;;;;;;;;;;4993255;28;19944;-81
2023/03/18 05:14:25;;;;;;;;;;;;;;;;;;4993602;28;20276;-80
2023/03/18 05:16:52;;;;;;;;;;;;;;;;;;4994197;28;19943;-80
2023/03/18 05:19:18;;;;;;;;;;;;;;;;;;4993493;28;19922;-80
2023/03/18 05:21:44;;;;;;;;;;;;;;;;;;4992632;28;19926;-81
2023/03/18 05:24:10;;;;;;;;;;;;;;;;;;4992996;28;20410;-81
2023/03/18 05:26:37;;;;;;;;;;;;;;;;;;4992237;28;19926;-80
2023/03/18 05:29:03;;;;;;;;;;;;;;;;;;4993367;28;19921;-80
2023/03/18 05:31:29;;;;;;;;;;;;;;;;;;4993350;28;19949;-80
2023/03/18 05:33:55;;;;;;;;;;;;;;;;;;4993848;28;20387;-80
2023/03/18 05:36:22;;;;;;;;;;;;;;;;;;4992766;28;19972;-81
2023/03/18 05:38:48;;;;;;;;;;;;;;;;;;4992079;28;19921;-81
2023/03/18 05:41:14;;;;;;;;;;;;;;;;;;4992175;28;19930;-81
2023/03/18 05:43:40;;;;;;;;;;;;;;;;;;4993472;28;19930;-80
2023/03/18 05:46:06;;;;;;;;;;;;;;;;;;4994096;28;19921;-81
2023/03/18 05:48:33;;;;;;;;;;;;;;;;;;4992868;28;19921;-85
2023/03/18 05:50:59;;;;;;;;;;;;;;;;;;4992118;28;20356;-80
2023/03/18 05:53:25;;;;;;;;;;;;;;;;;;4992338;28;19929;-80
2023/03/18 05:55:51;;;;;;;;;;;;;;;;;;4991767;28;19926;-80
2023/03/18 05:58:17;;;;;;;;;;;;;;;;;;4993620;28;20008;-80
2023/03/18 06:00:44;;;;;;;;;;;;;;;;;;4992344;28;19933;-80
2023/03/18 06:03:10;;;;;;;;;;;;;;;;;;4992395;28;19921;-80
2023/03/18 06:05:36;;;;;;;;;;;;;;;;;;4993227;28;19921;-86
2023/03/18 06:08:02;;;;;;;;;;;;;;;;;;4993090;28;19926;-80
2023/03/18 06:10:28;;;;;;;;;;;;;;;;;;4992655;28;19922;-80
2023/03/18 06:12:54;;;;;;;;;;;;;;;;;;4992720;28;19921;-80
2023/03/18 06:15:20;;;;;;;;;;;;;;;;;;4992099;28;20004;-80
2023/03/18 06:17:46;;;;;;;;;;;;;;;;;;4992991;28;20373;-80
2023/03/18 06:20:13;;;;;;;;;;;;;;;;;;4992154;28;19922;-81
2023/03/18 06:22:39;;;;;;;;;;;;;;;;;;4990988;28;20371;-82
2023/03/18 06:25:07;;;;;;;;;;;;;;;;;;4993307;28;19972;-81
2023/03/18 06:27:32;;;;;;;;;;;;;;;;;;4991962;28;19928;-80
2023/03/18 06:30:01;;;;;;;;;;;;;;;;;;4992857;28;19918;-81
2023/03/18 06:32:30;;;;;;;;;;;;;;;;;;4992446;28;20004;-79
2023/03/18 06:34:56;;;;;;;;;;;;;;;;;;4991925;28;20009;-80
2023/03/18 06:37:22;;;;;;;;;;;;;;;;;;4992477;28;19949;-80
2023/03/18 06:39:48;;;;;;;;;;;;;;;;;;4975237;28;19921;-80
2023/03/18 06:42:14;;;;;;;;;;;;;;;;;;4992711;28;19921;-80
2023/03/18 06:44:43;;;;;;;;;;;;;;;;;;4993014;28;20367;-86
2023/03/18 06:47:09;;;;;;;;;;;;;;;;;;4992989;28;20375;-82
2023/03/18 06:49:35;;;;;;;;;;;;;;;;;;4992179;28;19922;-80
2023/03/18 06:52:01;;;;;;;;;;;;;;;;;;4992447;28;20036;-82
2023/03/18 06:54:27;;;;;;;;;;;;;;;;;;4991522;28;20099;-81
2023/03/18 06:56:53;;;;;;;;;;;;;;;;;;4992122;28;19922;-80
2023/03/18 06:59:22;;;;;;;;;;;;;;;;;;4992070;28;20326;-80
2023/03/18 07:01:48;;;;;;;;;;;;;;;;;;4994134;28;19984;-80
2023/03/18 07:04:14;;;;;;;;;;;;;;;;;;4979669;28;19964;-78
2023/03/18 07:06:40;;;;;;;;;;;;;;;;;;4979005;28;19976;-78
2023/03/18 07:09:06;;;;;;;;;;;;;;;;;;4995201;28;19952;-78
2023/03/18 07:11:32;;;;;;;;;;;;;;;;;;4995479;28;19964;-78
2023/03/18 07:13:58;;;;;;;;;;;;;;;;;;4996397;28;19965;-78
2023/03/18 07:16:24;;;;;;;;;;;;;;;;;;4995956;28;19922;-79
2023/03/18 07:18:51;;;;;;;;;;;;;;;;;;4994540;28;20275;-78
2023/03/18 07:21:18;;;;;;;;;;;;;;;;;;4995439;28;19980;-78
2023/03/18 07:23:45;;;;;;;;;;;;;;;;;;4995845;28;19926;-84
2023/03/18 07:26:11;;;;;;;;;;;;;;;;;;4993887;28;20350;-75
2023/03/18 07:28:37;;;;;;;;;;;;;;;;;;4996620;28;19922;-75
2023/03/18 07:31:03;;;;;;;;;;;;;;;;;;4995147;28;20521;-74
2023/03/18 07:33:29;;;;;;;;;;;;;;;;;;4996329;28;19976;-75
2023/03/18 07:35:55;;;;;;;;;;;;;;;;;;4995744;28;20381;-75
2023/03/18 07:38:22;;;;;;;;;;;;;;;;;;4995174;28;19930;-76
2023/03/18 07:40:48;;;;;;;;;;;;;;;;;;4978484;28;19969;-79
2023/03/18 07:43:14;;;;;;;;;;;;;;;;;;4994830;28;19930;-78
2023/03/18 07:45:40;;;;;;;;;;;;;;;;;;4994461;28;19921;-79
2023/03/18 07:48:06;;;;;;;;;;;;;;;;;;4994825;28;20103;-78
2023/03/18 07:50:32;;;;;;;;;;;;;;;;;;4995864;28;19929;-78
2023/03/18 07:52:58;;;;;;;;;;;;;;;;;;4995311;28;19922;-78
2023/03/18 07:55:24;;;;;;;;;;;;;;;;;;4995105;28;19922;-79
2023/03/18 07:57:50;;;;;;;;;;;;;;;;;;4994054;28;19922;-78
2023/03/18 08:00:16;;;;;;;;;;;;;;;;;;4996063;28;19925;-79
2023/03/18 08:02:42;;;;;;;;;;;;;;;;;;4995354;28;20012;-79
2023/03/18 08:05:08;;;;;;;;;;;;;;;;;;4993939;28;20029;-79
2023/03/18 08:07:34;;;;;;;;;;;;;;;;;;4994722;28;19929;-80
2023/03/18 08:10:00;;;;;;;;;;;;;;;;;;4993484;28;19975;-80
2023/03/18 08:12:26;;;;;;;;;;;;;;;;;;4993712;28;19926;-79
2023/03/18 08:14:52;;;;;;;;;;;;;;;;;;4993885;28;20136;-79
2023/03/18 08:17:18;;;;;;;;;;;;;;;;;;4993410;28;19922;-79
2023/03/18 08:19:45;;;;;;;;;;;;;;;;;;4994086;28;20015;-79
2023/03/18 08:22:11;;;;;;;;;;;;;;;;;;4994091;28;19930;-79
2023/03/18 08:24:37;;;;;;;;;;;;;;;;;;4994113;28;19945;-79
2023/03/18 08:27:04;;;;;;;;;;;;;;;;;;4993713;28;20007;-78
2023/03/18 08:29:29;;;;;;;;;;;;;;;;;;4994218;28;20382;-78
2023/03/18 08:31:56;;;;;;;;;;;;;;;;;;4994049;28;19922;-79
2023/03/18 08:34:22;;;;;;;;;;;;;;;;;;4993754;28;19921;-79
2023/03/18 08:36:48;;;;;;;;;;;;;;;;;;4993963;28;19944;-79
2023/03/18 08:39:14;;;;;;;;;;;;;;;;;;4993690;28;20430;-80
2023/03/18 08:41:40;;;;;;;;;;;;;;;;;;4993447;28;19928;-65
2023/03/18 08:44:09;;;;;;;;;;;;;;;;;;4994112;28;19922;-65
2023/03/18 08:46:34;;;;;;;;;;;;;;;;;;4995141;28;19922;-65
2023/03/18 08:49:01;;;;;;;;;;;;;;;;;;4994776;28;19932;-76
2023/03/18 08:51:27;;;;;;;;;;;;;;;;;;4992990;28;19921;-77
2023/03/18 08:53:54;;;;;;;;;;;;;;;;;;4992764;28;19925;-85
2023/03/18 08:56:19;;;;;;;;;;;;;;;;;;4994102;28;19929;-81
2023/03/18 08:58:47;;;;;;;;;;;;;;;;;;4993942;28;19922;-82
2023/03/18 09:01:13;;;;;;;;;;;;;;;;;;4993463;28;20024;-81
2023/03/18 09:03:39;;;;;;;;;;;;;;;;;;4994339;28;20034;-81
2023/03/18 09:06:05;;;;;;;;;;;;;;;;;;4991447;28;20389;-81
2023/03/18 09:08:32;;;;;;;;;;;;;;;;;;4993076;28;19926;-81
2023/03/18 09:10:58;;;;;;;;;;;;;;;;;;4992786;28;20390;-83
2023/03/18 09:13:24;;;;;;;;;;;;;;;;;;4992487;28;19929;-82
2023/03/18 09:15:50;;;;;;;;;;;;;;;;;;4993469;28;19976;-82
2023/03/18 09:18:17;;;;;;;;;;;;;;;;;;4993316;28;20020;-80
2023/03/18 09:20:44;;;;;;;;;;;;;;;;;;4993285;28;20315;-82
2023/03/18 09:23:11;;;;;;;;;;;;;;;;;;4992571;28;19922;-81
2023/03/18 09:25:37;;;;;;;;;;;;;;;;;;4992182;28;19928;-81
2023/03/18 09:28:03;;;;;;;;;;;;;;;;;;4992151;28;20274;-80
2023/03/18 09:30:29;;;;;;;;;;;;;;;;;;4992874;28;19927;-80
2023/03/18 09:32:55;;;;;;;;;;;;;;;;;;4992281;28;19965;-82
2023/03/18 09:35:21;;;;;;;;;;;;;;;;;;4992151;28;20394;-81
2023/03/18 09:37:47;;;;;;;;;;;;;;;;;;4991296;28;19922;-81
2023/03/18 09:40:13;;;;;;;;;;;;;;;;;;4992093;28;20367;-81
2023/03/18 09:42:39;;;;;;;;;;;;;;;;;;4992593;28;20300;-81
2023/03/18 09:45:05;;;;;;;;;;;;;;;;;;4992207;28;19925;-81
2023/03/18 09:47:31;;;;;;;;;;;;;;;;;;4993150;28;20279;-81
2023/03/18 09:49:58;;;;;;;;;;;;;;;;;;4992158;28;20375;-88
2023/03/18 09:52:24;;;;;;;;;;;;;;;;;;4992660;28;19988;-80
2023/03/18 09:54:50;;;;;;;;;;;;;;;;;;4991708;28;19944;-80
2023/03/18 09:57:16;;;;;;;;;;;;;;;;;;4975332;28;19956;-79
2023/03/18 09:59:42;;;;;;;;;;;;;;;;;;4993091;28;19964;-80
2023/03/18 10:02:08;;;;;;;;;;;;;;;;;;4992642;28;19928;-80
2023/03/18 10:04:34;;;;;;;;;;;;;;;;;;4991652;28;20326;-80
2023/03/18 10:07:00;;;;;;;;;;;;;;;;;;4991541;28;20279;-84
2023/03/18 10:09:27;;;;;;;;;;;;;;;;;;4990880;28;19928;-81
2023/03/18 10:11:53;;;;;;;;;;;;;;;;;;4990940;28;19991;-75
2023/03/18 10:14:19;;;;;;;;;;;;;;;;;;4991027;28;19979;-81
2023/03/18 10:16:45;;;;;;;;;;;;;;;;;;4992527;28;19929;-79
2023/03/18 10:19:11;;;;;;;;;;;;;;;;;;4992017;28;20020;-78
2023/03/18 10:21:37;;;;;;;;;;;;;;;;;;4991482;28;20017;-78
2023/03/18 10:24:03;;;;;;;;;;;;;;;;;;4991699;28;20569;-79
2023/03/18 10:26:29;;;;;;;;;;;;;;;;;;4991054;28;19968;-79
2023/03/18 10:28:56;;;;;;;;;;;;;;;;;;4992651;28;19922;-79
2023/03/18 10:31:23;;;;;;;;;;;;;;;;;;4992364;28;19917;-79
2023/03/18 10:33:50;;;;;;;;;;;;;;;;;;4992434;28;19925;-80
2023/03/18 10:36:16;;;;;;;;;;;;;;;;;;4992022;28;19926;-79
2023/03/18 10:38:43;;;;;;;;;;;;;;;;;;4991344;28;20291;-79
2023/03/18 10:41:09;;;;;;;;;;;;;;;;;;4991731;28;19921;-81
2023/03/18 10:43:35;;;;;;;;;;;;;;;;;;4992576;28;19996;-79
2023/03/18 10:46:01;;;;;;;;;;;;;;;;;;4974952;28;19932;-80
2023/03/18 10:48:27;;;;;;;;;;;;;;;;;;4991001;28;19976;-83
2023/03/18 10:50:53;;;;;;;;;;;;;;;;;;4990775;28;19922;-83
2023/03/18 10:53:19;;;;;;;;;;;;;;;;;;4990884;28;19922;-81
2023/03/18 10:55:45;;;;;;;;;;;;;;;;;;4991416;28;19929;-79
2023/03/18 10:58:11;;;;;;;;;;;;;;;;;;4990051;28;19979;-80
2023/03/18 11:00:37;;;;;;;;;;;;;;;;;;4991116;28;20367;-79
2023/03/18 11:03:04;;;;;;;;;;;;;;;;;;4991909;28;19921;-83
2023/03/18 11:05:32;;;;;;;;;;;;;;;;;;4953071;28;1127743;-78
2023/03/18 11:07:58;;;;;;;;;;;;;;;;;;4992037;28;20016;-77
2023/03/18 11:10:24;;;;;;;;;;;;;;;;;;4992458;28;19948;-77
2023/03/18 11:12:50;;;;;;;;;;;;;;;;;;4992390;28;19977;-77
2023/03/18 11:15:16;;;;;;;;;;;;;;;;;;4991571;28;19921;-69
2023/03/18 11:17:42;;;;;;;;;;;;;;;;;;4992779;28;19925;-69
2023/03/18 11:20:10;;;;;;;;;;;;;;;;;;4992134;28;20024;-70
2023/03/18 11:22:36;;;;;;;;;;;;;;;;;;4990652;28;19922;-70
2023/03/18 11:25:02;;;;;;;;;;;;;;;;;;4992313;28;19929;-72
2023/03/18 11:27:28;;;;;;;;;;;;;;;;;;4989932;28;19924;-68
2023/03/18 11:29:54;;;;;;;;;;;;;;;;;;4991240;28;19921;-71
2023/03/18 11:32:20;;;;;;;;;;;;;;;;;;4991376;28;19922;-69
2023/03/18 11:34:46;;;;;;;;;;;;;;;;;;4991722;28;19929;-72
2023/03/18 11:37:13;;;;;;;;;;;;;;;;;;4990656;28;20016;-71
2023/03/18 11:39:39;;;;;;;;;;;;;;;;;;4991454;28;19921;-68
2023/03/18 11:42:05;;;;;;;;;;;;;;;;;;4991418;28;19928;-67
2023/03/18 11:44:31;;;;;;;;;;;;;;;;;;4991645;28;20460;-69
2023/03/18 11:46:57;;;;;;;;;;;;;;;;;;4992060;28;19925;-68
2023/03/18 11:49:23;;;;;;;;;;;;;;;;;;4994898;28;19921;-68
2023/03/18 11:51:49;;;;;;;;;;;;;;;;;;4995108;28;20036;-68
2023/03/18 11:54:15;;;;;;;;;;;;;;;;;;4994531;28;20076;-68
2023/03/18 11:56:41;;;;;;;;;;;;;;;;;;4994924;28;19926;-68
2023/03/18 11:59:07;;;;;;;;;;;;;;;;;;4995369;28;20371;-71
2023/03/18 12:01:33;;;;;;;;;;;;;;;;;;4993725;28;19972;-71
2023/03/18 12:03:59;;;;;;;;;;;;;;;;;;4995137;28;19922;-67
2023/03/18 12:06:27;;;;;;;;;;;;;;;;;;4994515;28;20016;-67
2023/03/18 12:08:53;;;;;;;;;;;;;;;;;;4994372;28;19922;-66
2023/03/18 12:11:19;;;;;;;;;;;;;;;;;;4994218;28;19922;-67
2023/03/18 12:13:46;;;;;;;;;;;;;;;;;;4994887;28;19922;-67
2023/03/18 12:16:13;;;;;;;;;;;;;;;;;;4994580;28;19922;-77
2023/03/18 12:18:39;;;;;;;;;;;;;;;;;;4994885;28;19922;-71
2023/03/18 12:21:05;;;;;;;;;;;;;;;;;;4994886;28;19921;-71
2023/03/18 12:23:31;;;;;;;;;;;;;;;;;;4993076;28;19926;-72
2023/03/18 12:25:57;;;;;;;;;;;;;;;;;;4993320;28;19951;-72
2023/03/18 12:28:23;;;;;;;;;;;;;;;;;;4993359;28;19922;-71
2023/03/18 12:30:49;;;;;;;;;;;;;;;;;;4993802;28;20422;-72
2023/03/18 12:33:15;;;;;;;;;;;;;;;;;;4994086;28;20291;-74
2023/03/18 12:35:41;;;;;;;;;;;;;;;;;;4994323;28;19932;-71
2023/03/18 12:38:08;;;;;;;;;;;;;;;;;;4993020;28;19928;-72
2023/03/18 12:40:34;;;;;;;;;;;;;;;;;;4993131;28;20072;-71
2023/03/18 12:43:00;;;;;;;;;;;;;;;;;;4993789;28;20355;-71
2023/03/18 12:45:26;;;;;;;;;;;;;;;;;;4993755;28;19971;-71
2023/03/18 12:47:52;;;;;;;;;;;;;;;;;;4994057;28;20363;-72
2023/03/18 12:50:18;;;;;;;;;;;;;;;;;;4992658;28;20337;-71
2023/03/18 12:52:44;;;;;;;;;;;;;;;;;;4993752;28;19922;-72
2023/03/18 12:55:10;;;;;;;;;;;;;;;;;;4993910;28;20291;-70
2023/03/18 12:57:36;;;;;;;;;;;;;;;;;;4993873;28;19925;-76
2023/03/18 13:00:05;;;;;;;;;;;;;;;;;;4976254;28;19977;-75
2023/03/18 13:02:31;;;;;;;;;;;;;;;;;;4993177;28;19925;-74
2023/03/18 13:04:57;;;;;;;;;;;;;;;;;;4994750;28;19944;-76
2023/03/18 13:07:24;;;;;;;;;;;;;;;;;;4993882;28;19925;-76
2023/03/18 13:09:50;;;;;;;;;;;;;;;;;;4976889;28;19922;-76
2023/03/18 13:12:16;;;;;;;;;;;;;;;;;;4994251;28;19925;-77
2023/03/18 13:14:41;;;;;;;;;;;;;;;;;;4994692;28;19925;-76
2023/03/18 13:17:07;;;;;;;;;;;;;;;;;;4994371;28;19922;-76
2023/03/18 13:19:33;;;;;;;;;;;;;;;;;;4994006;28;20359;-76
2023/03/18 13:22:00;;;;;;;;;;;;;;;;;;4994374;28;19928;-76
2023/03/18 13:24:26;;;;;;;;;;;;;;;;;;4992733;28;20444;-76
2023/03/18 13:26:52;;;;;;;;;;;;;;;;;;4994034;28;20012;-76
2023/03/18 13:29:18;;;;;;;;;;;;;;;;;;4993358;28;20355;-82
2023/03/18 13:31:44;;;;;;;;;;;;;;;;;;4994280;28;20020;-76
2023/03/18 13:34:10;;;;;;;;;;;;;;;;;;4994111;28;20425;-76
2023/03/18 13:36:37;;;;;;;;;;;;;;;;;;4993791;28;19968;-77
2023/03/18 13:39:03;;;;;;;;;;;;;;;;;;4993372;28;19926;-76
2023/03/18 13:41:31;;;;;;;;;;;;;;;;;;4993258;28;19929;-78
2023/03/18 13:43:57;;;;;;;;;;;;;;;;;;4993256;28;19922;-77
2023/03/18 13:46:23;;;;;;;;;;;;;;;;;;4992689;28;19928;-77
2023/03/18 13:48:49;;;;;;;;;;;;;;;;;;4993918;28;19929;-77
2023/03/18 13:51:15;;;;;;;;;;;;;;;;;;4994250;28;19935;-76
2023/03/18 13:53:41;;;;;;;;;;;;;;;;;;4992124;28;20560;-76
2023/03/18 13:56:07;;;;;;;;;;;;;;;;;;4992477;28;19988;-77
2023/03/18 13:58:33;;;;;;;;;;;;;;;;;;4993590;28;20035;-76
2023/03/18 14:00:59;;;;;;;;;;;;;;;;;;4992056;28;19922;-76
2023/03/18 14:03:25;;;;;;;;;;;;;;;;;;4991536;28;20000;-76
2023/03/18 14:05:52;;;;;;;;;;;;;;;;;;4992627;28;20440;-76
2023/03/18 14:08:19;;;;;;;;;;;;;;;;;;4992861;28;19921;-70
2023/03/18 14:10:45;;;;;;;;;;;;;;;;;;4992580;28;20016;-67
2023/03/18 14:13:11;;;;;;;;;;;;;;;;;;4993082;28;20470;-72
2023/03/18 14:15:37;;;;;;;;;;;;;;;;;;4993013;28;20311;-71
2023/03/18 14:18:03;;;;;;;;;;;;;;;;;;4993394;28;19922;-72
2023/03/18 14:20:29;;;;;;;;;;;;;;;;;;4992798;28;20384;-72
2023/03/18 14:22:55;;;;;;;;;;;;;;;;;;4992366;28;19922;-71
2023/03/18 14:25:21;;;;;;;;;;;;;;;;;;4993325;28;19921;-72
2023/03/18 14:27:47;;;;;;;;;;;;;;;;;;4992217;28;20347;-71
2023/03/18 14:30:14;;;;;;;;;;;;;;;;;;4993321;28;19968;-75
2023/03/18 14:32:40;;;;;;;;;;;;;;;;;;4992699;28;19928;-73
2023/03/18 14:35:05;;;;;;;;;;;;;;;;;;4992047;28;19922;-72
2023/03/18 14:37:31;;;;;;;;;;;;;;;;;;4992072;28;19926;-74
2023/03/18 14:39:57;;;;;;;;;;;;;;;;;;4993182;28;19969;-72
2023/03/18 14:42:23;;;;;;;;;;;;;;;;;;4992372;28;19984;-75
2023/03/18 14:44:49;;;;;;;;;;;;;;;;;;4992708;28;19921;-72
2023/03/18 14:47:15;;;;;;;;;;;;;;;;;;4991259;28;19971;-74
2023/03/18 14:49:41;;;;;;;;;;;;;;;;;;4992767;28;19926;-72
2023/03/18 14:52:09;;;;;;;;;;;;;;;;;;4992762;28;19928;-72
2023/03/18 14:54:35;;;;;;;;;;;;;;;;;;4991642;28;19925;-73
2023/03/18 14:57:01;;;;;;;;;;;;;;;;;;4991957;28;19922;-76
2023/03/18 14:59:27;;;;;;;;;;;;;;;;;;4992260;28;20387;-78
2023/03/18 15:01:54;;;;;;;;;;;;;;;;;;4992168;28;19922;-73
2023/03/18 15:04:20;;;;;;;;;;;;;;;;;;4991476;28;19922;-73
2023/03/18 15:06:46;;;;;;;;;;;;;;;;;;4989913;28;19996;-73
2023/03/18 15:09:13;;;;;;;;;;;;;;;;;;4990886;28;19968;-70
2023/03/18 15:11:39;;;;;;;;;;;;;;;;;;4991441;28;19977;-72
2023/03/18 15:14:05;;;;;;;;;;;;;;;;;;4992216;28;19926;-72
2023/03/18 15:16:31;;;;;;;;;;;;;;;;;;4991784;28;20008;-72
2023/03/18 15:18:58;;;;;;;;;;;;;;;;;;4991699;28;19937;-72
2023/03/18 15:21:24;;;;;;;;;;;;;;;;;;4991415;28;19922;-71
2023/03/18 15:23:50;;;;;;;;;;;;;;;;;;4993747;28;19925;-71
2023/03/18 15:26:17;;;;;;;;;;;;;;;;;;4995497;28;19948;-76
2023/03/18 15:28:43;;;;;;;;;;;;;;;;;;4994589;28;19928;-76
2023/03/18 15:31:09;;;;;;;;;;;;;;;;;;4995801;28;20286;-77
2023/03/18 15:33:35;;;;;;;;;;;;;;;;;;4994096;28;20078;-76
2023/03/18 15:36:01;;;;;;;;;;;;;;;;;;4994762;28;19976;-75
2023/03/18 15:38:27;;;;;;;;;;;;;;;;;;4995326;28;19922;-76
2023/03/18 15:40:53;;;;;;;;;;;;;;;;;;4994071;28;19929;-79
2023/03/18 15:43:19;;;;;;;;;;;;;;;;;;4994948;28;20310;-76
2023/03/18 15:45:45;;;;;;;;;;;;;;;;;;4993936;28;19921;-76
2023/03/18 15:48:12;;;;;;;;;;;;;;;;;;4994433;28;19929;-78
2023/03/18 15:50:38;;;;;;;;;;;;;;;;;;4995241;28;19926;-74
2023/03/18 15:53:04;;;;;;;;;;;;;;;;;;4995019;28;20449;-73
2023/03/18 15:55:30;;;;;;;;;;;;;;;;;;4995468;28;20349;-74
2023/03/18 15:57:56;;;;;;;;;;;;;;;;;;4994715;28;19922;-74
2023/03/18 16:00:22;;;;;;;;;;;;;;;;;;4995430;28;20363;-73
2023/03/18 16:02:49;;;;;;;;;;;;;;;;;;4994755;28;19928;-73
2023/03/18 16:05:15;;;;;;;;;;;;;;;;;;4994026;28;20012;-77
2023/03/18 16:07:41;;;;;;;;;;;;;;;;;;4994261;28;19960;-76
2023/03/18 16:10:08;;;;;;;;;;;;;;;;;;4993920;28;19925;-76
2023/03/18 16:12:34;;;;;;;;;;;;;;;;;;4994605;28;19952;-84
2023/03/18 16:15:00;;;;;;;;;;;;;;;;;;4995301;28;19944;-72
2023/03/18 16:17:26;;;;;;;;;;;;;;;;;;4995060;28;19921;-73
2023/03/18 16:19:54;;;;;;;;;;;;;;;;;;4994867;28;19925;-72
2023/03/18 16:22:20;;;;;;;;;;;;;;;;;;4995276;28;19921;-70
2023/03/18 16:24:46;;;;;;;;;;;;;;;;;;4986689;28;19972;-77
2023/03/18 16:27:12;;;;;;;;;;;;;;;;;;4993001;28;19968;-76
2023/03/18 16:29:38;;;;;;;;;;;;;;;;;;4993019;28;19976;-74
2023/03/18 16:32:05;;;;;;;;;;;;;;;;;;4993517;28;19922;-73
2023/03/18 16:34:31;;;;;;;;;;;;;;;;;;4993008;28;19922;-73
2023/03/18 16:36:57;;;;;;;;;;;;;;;;;;4993794;28;19925;-73
2023/03/18 16:39:27;;;;;;;;;;;;;;;;;;4993292;28;19976;-74